sensor_id;sensor_type;location;lat;lon;timestamp;temperature;humidity
68215;DHT22;55036;52.138;5.236;2022-11-14T00:00:53;7.30;77.90
68215;DHT22;55036;52.138;5.236;2022-11-14T00:03:20;7.30;78.60
68215;DHT22;55036;52.138;5.236;2022-11-14T00:05:46;7.20;79.00
68215;DHT22;55036;52.138;5.236;2022-11-14T00:08:22;7.20;78.80
68215;DHT22;55036;52.138;5.236;2022-11-14T00:10:51;7.30;78.50
68215;DHT22;55036;52.138;5.236;2022-11-14T00:13:18;7.30;78.20
68215;DHT22;55036;52.138;5.236;2022-11-14T00:15:48;7.40;78.00
68215;DHT22;55036;52.138;5.236;2022-11-14T00:18:16;7.40;78.20
68215;DHT22;55036;52.138;5.236;2022-11-14T00:20:43;7.30;78.80
68215;DHT22;55036;52.138;5.236;2022-11-14T00:23:12;7.20;79.20
68215;DHT22;55036;52.138;5.236;2022-11-14T00:25:39;7.20;79.20
68215;DHT22;55036;52.138;5.236;2022-11-14T00:28:05;7.20;79.00
68215;DHT22;55036;52.138;5.236;2022-11-14T00:30:32;7.20;79.50
68215;DHT22;55036;52.138;5.236;2022-11-14T00:32:58;7.10;79.50
68215;DHT22;55036;52.138;5.236;2022-11-14T00:35:25;7.10;79.70
68215;DHT22;55036;52.138;5.236;2022-11-14T00:37:52;7.20;79.20
68215;DHT22;55036;52.138;5.236;2022-11-14T00:40:18;7.30;78.50
68215;DHT22;55036;52.138;5.236;2022-11-14T00:42:45;7.20;78.60
68215;DHT22;55036;52.138;5.236;2022-11-14T00:45:12;7.10;79.00
68215;DHT22;55036;52.138;5.236;2022-11-14T00:47:38;7.10;79.00
68215;DHT22;55036;52.138;5.236;2022-11-14T00:50:05;7.00;79.60
68215;DHT22;55036;52.138;5.236;2022-11-14T00:52:32;7.00;79.10
68215;DHT22;55036;52.138;5.236;2022-11-14T00:54:59;7.00;79.60
68215;DHT22;55036;52.138;5.236;2022-11-14T00:57:25;6.90;79.50
68215;DHT22;55036;52.138;5.236;2022-11-14T00:59:52;6.90;79.90
68215;DHT22;55036;52.138;5.236;2022-11-14T01:02:21;6.90;80.50
68215;DHT22;55036;52.138;5.236;2022-11-14T01:04:48;6.90;80.10
68215;DHT22;55036;52.138;5.236;2022-11-14T01:07:14;6.80;80.40
68215;DHT22;55036;52.138;5.236;2022-11-14T01:09:41;6.70;80.30
68215;DHT22;55036;52.138;5.236;2022-11-14T01:12:07;6.80;80.10
68215;DHT22;55036;52.138;5.236;2022-11-14T01:14:34;6.80;80.30
68215;DHT22;55036;52.138;5.236;2022-11-14T01:17:01;6.80;80.10
68215;DHT22;55036;52.138;5.236;2022-11-14T01:19:27;6.80;80.40
68215;DHT22;55036;52.138;5.236;2022-11-14T01:21:54;6.80;80.60
68215;DHT22;55036;52.138;5.236;2022-11-14T01:24:21;6.70;80.40
68215;DHT22;55036;52.138;5.236;2022-11-14T01:26:47;6.80;80.20
68215;DHT22;55036;52.138;5.236;2022-11-14T01:29:14;6.70;80.90
68215;DHT22;55036;52.138;5.236;2022-11-14T01:31:41;6.60;80.70
68215;DHT22;55036;52.138;5.236;2022-11-14T01:34:07;6.70;80.20
68215;DHT22;55036;52.138;5.236;2022-11-14T01:36:34;6.70;80.40
68215;DHT22;55036;52.138;5.236;2022-11-14T01:39:00;6.60;80.80
68215;DHT22;55036;52.138;5.236;2022-11-14T01:41:27;6.60;80.40
68215;DHT22;55036;52.138;5.236;2022-11-14T01:43:54;6.70;79.90
68215;DHT22;55036;52.138;5.236;2022-11-14T01:46:34;6.60;80.10
68215;DHT22;55036;52.138;5.236;2022-11-14T01:49:30;6.60;79.70
68215;DHT22;55036;52.138;5.236;2022-11-14T01:52:05;6.60;79.80
68215;DHT22;55036;52.138;5.236;2022-11-14T01:54:41;6.50;80.20
68215;DHT22;55036;52.138;5.236;2022-11-14T01:57:09;6.40;80.50
68215;DHT22;55036;52.138;5.236;2022-11-14T01:59:40;6.50;80.00
68215;DHT22;55036;52.138;5.236;2022-11-14T02:02:14;6.50;79.90
68215;DHT22;55036;52.138;5.236;2022-11-14T02:04:46;6.40;79.80
68215;DHT22;55036;52.138;5.236;2022-11-14T02:07:13;6.40;80.40
68215;DHT22;55036;52.138;5.236;2022-11-14T02:09:44;6.40;80.00
68215;DHT22;55036;52.138;5.236;2022-11-14T02:12:13;6.30;80.10
68215;DHT22;55036;52.138;5.236;2022-11-14T02:14:41;6.40;80.20
68215;DHT22;55036;52.138;5.236;2022-11-14T02:17:11;6.20;81.90
68215;DHT22;55036;52.138;5.236;2022-11-14T02:22:37;6.00;82.60
68215;DHT22;55036;52.138;5.236;2022-11-14T02:25:05;6.00;82.20
68215;DHT22;55036;52.138;5.236;2022-11-14T02:27:33;6.00;81.90
68215;DHT22;55036;52.138;5.236;2022-11-14T02:30:06;6.00;83.00
68215;DHT22;55036;52.138;5.236;2022-11-14T02:32:33;6.00;83.00
68215;DHT22;55036;52.138;5.236;2022-11-14T02:35:19;5.80;83.50
68215;DHT22;55036;52.138;5.236;2022-11-14T02:37:46;5.80;83.90
68215;DHT22;55036;52.138;5.236;2022-11-14T02:40:13;5.90;83.40
68215;DHT22;55036;52.138;5.236;2022-11-14T02:42:40;5.90;83.10
68215;DHT22;55036;52.138;5.236;2022-11-14T02:45:07;5.80;83.60
68215;DHT22;55036;52.138;5.236;2022-11-14T02:47:34;5.90;83.20
68215;DHT22;55036;52.138;5.236;2022-11-14T02:50:01;5.90;83.40
68215;DHT22;55036;52.138;5.236;2022-11-14T02:52:28;5.80;83.10
68215;DHT22;55036;52.138;5.236;2022-11-14T02:54:55;5.90;82.80
68215;DHT22;55036;52.138;5.236;2022-11-14T02:57:21;5.90;82.40
68215;DHT22;55036;52.138;5.236;2022-11-14T02:59:48;5.90;82.70
68215;DHT22;55036;52.138;5.236;2022-11-14T03:02:14;5.80;82.80
68215;DHT22;55036;52.138;5.236;2022-11-14T03:04:41;5.80;82.90
68215;DHT22;55036;52.138;5.236;2022-11-14T03:07:08;5.80;82.50
68215;DHT22;55036;52.138;5.236;2022-11-14T03:09:34;5.80;83.00
68215;DHT22;55036;52.138;5.236;2022-11-14T03:12:01;5.80;82.70
68215;DHT22;55036;52.138;5.236;2022-11-14T03:14:29;5.70;84.00
68215;DHT22;55036;52.138;5.236;2022-11-14T03:16:56;5.60;85.00
68215;DHT22;55036;52.138;5.236;2022-11-14T03:19:23;5.50;84.50
68215;DHT22;55036;52.138;5.236;2022-11-14T03:21:49;5.50;85.00
68215;DHT22;55036;52.138;5.236;2022-11-14T03:24:16;5.50;84.50
68215;DHT22;55036;52.138;5.236;2022-11-14T03:26:43;5.60;84.20
68215;DHT22;55036;52.138;5.236;2022-11-14T03:29:09;5.60;83.70
68215;DHT22;55036;52.138;5.236;2022-11-14T03:31:36;5.50;84.40
68215;DHT22;55036;52.138;5.236;2022-11-14T03:34:02;5.50;84.90
68215;DHT22;55036;52.138;5.236;2022-11-14T03:36:29;5.40;85.00
68215;DHT22;55036;52.138;5.236;2022-11-14T03:38:56;5.40;84.50
68215;DHT22;55036;52.138;5.236;2022-11-14T03:44:55;5.40;85.20
68215;DHT22;55036;52.138;5.236;2022-11-14T03:51:02;5.30;86.20
68215;DHT22;55036;52.138;5.236;2022-11-14T03:53:29;5.20;86.30
68215;DHT22;55036;52.138;5.236;2022-11-14T03:55:55;5.20;86.10
68215;DHT22;55036;52.138;5.236;2022-11-14T03:58:22;5.20;85.80
68215;DHT22;55036;52.138;5.236;2022-11-14T04:00:49;5.20;85.70
68215;DHT22;55036;52.138;5.236;2022-11-14T04:03:15;5.30;85.40
68215;DHT22;55036;52.138;5.236;2022-11-14T04:05:43;5.30;85.20
68215;DHT22;55036;52.138;5.236;2022-11-14T04:08:10;5.40;84.90
68215;DHT22;55036;52.138;5.236;2022-11-14T04:10:37;5.40;84.80
68215;DHT22;55036;52.138;5.236;2022-11-14T04:13:04;5.40;84.30
68215;DHT22;55036;52.138;5.236;2022-11-14T04:15:30;5.30;84.40
68215;DHT22;55036;52.138;5.236;2022-11-14T04:17:57;5.30;84.60
68215;DHT22;55036;52.138;5.236;2022-11-14T04:20:24;5.30;84.30
68215;DHT22;55036;52.138;5.236;2022-11-14T04:22:50;5.20;84.90
68215;DHT22;55036;52.138;5.236;2022-11-14T04:25:17;5.30;84.70
68215;DHT22;55036;52.138;5.236;2022-11-14T04:27:43;5.30;84.20
68215;DHT22;55036;52.138;5.236;2022-11-14T04:30:10;5.30;84.50
68215;DHT22;55036;52.138;5.236;2022-11-14T04:32:37;5.20;84.40
68215;DHT22;55036;52.138;5.236;2022-11-14T04:35:04;5.20;84.60
68215;DHT22;55036;52.138;5.236;2022-11-14T04:37:31;5.10;84.90
68215;DHT22;55036;52.138;5.236;2022-11-14T04:39:57;5.20;84.40
68215;DHT22;55036;52.138;5.236;2022-11-14T04:42:26;5.20;84.70
68215;DHT22;55036;52.138;5.236;2022-11-14T04:44:52;5.20;84.20
68215;DHT22;55036;52.138;5.236;2022-11-14T04:47:19;5.20;84.00
68215;DHT22;55036;52.138;5.236;2022-11-14T04:49:46;5.30;84.00
68215;DHT22;55036;52.138;5.236;2022-11-14T04:52:12;5.20;84.20
68215;DHT22;55036;52.138;5.236;2022-11-14T04:54:39;5.20;84.20
68215;DHT22;55036;52.138;5.236;2022-11-14T04:57:06;5.20;84.20
68215;DHT22;55036;52.138;5.236;2022-11-14T04:59:32;5.20;84.20
68215;DHT22;55036;52.138;5.236;2022-11-14T05:01:59;5.20;84.20
68215;DHT22;55036;52.138;5.236;2022-11-14T05:04:26;5.30;84.00
68215;DHT22;55036;52.138;5.236;2022-11-14T05:06:52;5.30;83.90
68215;DHT22;55036;52.138;5.236;2022-11-14T05:09:19;5.20;84.30
68215;DHT22;55036;52.138;5.236;2022-11-14T05:11:45;5.20;83.90
68215;DHT22;55036;52.138;5.236;2022-11-14T05:14:12;5.30;83.80
68215;DHT22;55036;52.138;5.236;2022-11-14T05:16:39;5.40;83.90
68215;DHT22;55036;52.138;5.236;2022-11-14T05:19:05;5.40;83.30
68215;DHT22;55036;52.138;5.236;2022-11-14T05:21:32;5.30;83.50
68215;DHT22;55036;52.138;5.236;2022-11-14T05:23:59;5.40;83.10
68215;DHT22;55036;52.138;5.236;2022-11-14T05:26:26;5.40;83.00
68215;DHT22;55036;52.138;5.236;2022-11-14T05:28:52;5.40;83.00
68215;DHT22;55036;52.138;5.236;2022-11-14T05:31:19;5.40;82.60
68215;DHT22;55036;52.138;5.236;2022-11-14T05:33:45;5.40;82.50
68215;DHT22;55036;52.138;5.236;2022-11-14T05:36:14;5.30;82.40
68215;DHT22;55036;52.138;5.236;2022-11-14T05:38:42;5.20;82.50
68215;DHT22;55036;52.138;5.236;2022-11-14T05:41:11;5.20;83.30
68215;DHT22;55036;52.138;5.236;2022-11-14T05:43:38;5.10;84.20
68215;DHT22;55036;52.138;5.236;2022-11-14T05:46:08;5.10;84.30
68215;DHT22;55036;52.138;5.236;2022-11-14T05:48:35;5.00;85.20
68215;DHT22;55036;52.138;5.236;2022-11-14T05:51:03;5.00;85.10
68215;DHT22;55036;52.138;5.236;2022-11-14T05:53:31;5.10;84.60
68215;DHT22;55036;52.138;5.236;2022-11-14T05:56:03;5.10;84.80
68215;DHT22;55036;52.138;5.236;2022-11-14T05:58:31;5.00;85.60
68215;DHT22;55036;52.138;5.236;2022-11-14T06:01:09;5.00;85.70
68215;DHT22;55036;52.138;5.236;2022-11-14T06:03:38;4.90;85.80
68215;DHT22;55036;52.138;5.236;2022-11-14T06:06:06;4.80;86.60
68215;DHT22;55036;52.138;5.236;2022-11-14T06:08:34;4.80;86.40
68215;DHT22;55036;52.138;5.236;2022-11-14T06:11:12;4.80;86.70
68215;DHT22;55036;52.138;5.236;2022-11-14T06:13:39;4.80;86.80
68215;DHT22;55036;52.138;5.236;2022-11-14T06:16:09;4.90;86.20
68215;DHT22;55036;52.138;5.236;2022-11-14T06:18:36;5.00;85.80
68215;DHT22;55036;52.138;5.236;2022-11-14T06:21:06;5.00;85.40
68215;DHT22;55036;52.138;5.236;2022-11-14T06:23:33;4.90;85.80
68215;DHT22;55036;52.138;5.236;2022-11-14T06:26:01;5.00;85.50
68215;DHT22;55036;52.138;5.236;2022-11-14T06:28:29;5.00;85.20
68215;DHT22;55036;52.138;5.236;2022-11-14T06:31:00;5.00;85.30
68215;DHT22;55036;52.138;5.236;2022-11-14T06:33:28;5.00;85.40
68215;DHT22;55036;52.138;5.236;2022-11-14T06:35:59;5.10;85.00
68215;DHT22;55036;52.138;5.236;2022-11-14T06:38:27;5.20;84.60
68215;DHT22;55036;52.138;5.236;2022-11-14T06:41:06;5.20;84.20
68215;DHT22;55036;52.138;5.236;2022-11-14T06:43:37;5.10;84.60
68215;DHT22;55036;52.138;5.236;2022-11-14T06:46:06;5.10;84.60
68215;DHT22;55036;52.138;5.236;2022-11-14T06:48:34;5.10;84.30
68215;DHT22;55036;52.138;5.236;2022-11-14T06:51:01;5.10;84.40
68215;DHT22;55036;52.138;5.236;2022-11-14T06:53:30;5.20;84.40
68215;DHT22;55036;52.138;5.236;2022-11-14T06:56:04;5.10;83.90
68215;DHT22;55036;52.138;5.236;2022-11-14T06:58:41;5.10;84.40
68215;DHT22;55036;52.138;5.236;2022-11-14T07:01:14;5.10;83.90
68215;DHT22;55036;52.138;5.236;2022-11-14T07:03:42;5.00;84.30
68215;DHT22;55036;52.138;5.236;2022-11-14T07:06:11;5.10;83.90
68215;DHT22;55036;52.138;5.236;2022-11-14T07:08:38;5.20;84.70
68215;DHT22;55036;52.138;5.236;2022-11-14T07:11:10;5.20;83.60
68215;DHT22;55036;52.138;5.236;2022-11-14T07:13:37;5.20;83.20
68215;DHT22;55036;52.138;5.236;2022-11-14T07:16:04;5.00;84.20
68215;DHT22;55036;52.138;5.236;2022-11-14T07:18:32;4.90;84.50
68215;DHT22;55036;52.138;5.236;2022-11-14T07:21:04;5.00;84.60
68215;DHT22;55036;52.138;5.236;2022-11-14T07:23:33;4.90;85.00
68215;DHT22;55036;52.138;5.236;2022-11-14T07:26:01;5.00;84.20
68215;DHT22;55036;52.138;5.236;2022-11-14T07:28:28;5.00;84.70
68215;DHT22;55036;52.138;5.236;2022-11-14T07:30:55;5.00;84.20
68215;DHT22;55036;52.138;5.236;2022-11-14T07:33:22;5.10;83.80
68215;DHT22;55036;52.138;5.236;2022-11-14T07:35:50;5.10;84.10
68215;DHT22;55036;52.138;5.236;2022-11-14T07:38:16;4.90;84.80
68215;DHT22;55036;52.138;5.236;2022-11-14T07:41:01;5.10;84.40
68215;DHT22;55036;52.138;5.236;2022-11-14T07:43:28;5.00;84.50
68215;DHT22;55036;52.138;5.236;2022-11-14T07:46:03;4.90;85.20
68215;DHT22;55036;52.138;5.236;2022-11-14T07:48:30;5.10;84.60
68215;DHT22;55036;52.138;5.236;2022-11-14T07:51:02;5.20;84.60
68215;DHT22;55036;52.138;5.236;2022-11-14T07:53:30;5.20;84.30
68215;DHT22;55036;52.138;5.236;2022-11-14T07:56:01;5.30;83.90
68215;DHT22;55036;52.138;5.236;2022-11-14T07:58:28;5.30;83.80
68215;DHT22;55036;52.138;5.236;2022-11-14T08:00:59;5.40;83.50
68215;DHT22;55036;52.138;5.236;2022-11-14T08:03:27;5.30;83.90
68215;DHT22;55036;52.138;5.236;2022-11-14T08:06:11;5.40;83.40
68215;DHT22;55036;52.138;5.236;2022-11-14T08:08:38;5.40;83.60
68215;DHT22;55036;52.138;5.236;2022-11-14T08:11:04;5.30;84.40
68215;DHT22;55036;52.138;5.236;2022-11-14T08:13:31;5.40;84.30
68215;DHT22;55036;52.138;5.236;2022-11-14T08:16:03;5.50;84.60
68215;DHT22;55036;52.138;5.236;2022-11-14T08:18:38;5.70;84.00
68215;DHT22;55036;52.138;5.236;2022-11-14T08:21:05;5.80;83.90
68215;DHT22;55036;52.138;5.236;2022-11-14T08:23:31;5.90;83.70
68215;DHT22;55036;52.138;5.236;2022-11-14T08:25:58;5.90;83.70
68215;DHT22;55036;52.138;5.236;2022-11-14T08:28:25;6.10;83.30
68215;DHT22;55036;52.138;5.236;2022-11-14T08:30:55;6.20;84.00
68215;DHT22;55036;52.138;5.236;2022-11-14T08:33:23;6.40;83.10
68215;DHT22;55036;52.138;5.236;2022-11-14T08:35:50;6.40;82.70
68215;DHT22;55036;52.138;5.236;2022-11-14T08:38:16;6.50;82.20
68215;DHT22;55036;52.138;5.236;2022-11-14T08:40:43;6.70;83.10
68215;DHT22;55036;52.138;5.236;2022-11-14T08:43:10;6.90;82.50
68215;DHT22;55036;52.138;5.236;2022-11-14T08:45:37;7.00;82.10
68215;DHT22;55036;52.138;5.236;2022-11-14T08:48:03;7.00;81.50
68215;DHT22;55036;52.138;5.236;2022-11-14T08:50:31;7.10;81.50
68215;DHT22;55036;52.138;5.236;2022-11-14T08:52:57;7.10;79.40
68215;DHT22;55036;52.138;5.236;2022-11-14T08:55:24;7.00;80.40
68215;DHT22;55036;52.138;5.236;2022-11-14T08:57:52;7.10;79.90
68215;DHT22;55036;52.138;5.236;2022-11-14T09:00:19;7.20;80.40
68215;DHT22;55036;52.138;5.236;2022-11-14T09:02:46;7.20;78.10
68215;DHT22;55036;52.138;5.236;2022-11-14T09:05:13;7.20;79.20
68215;DHT22;55036;52.138;5.236;2022-11-14T09:07:39;7.30;80.20
68215;DHT22;55036;52.138;5.236;2022-11-14T09:10:06;7.50;80.00
68215;DHT22;55036;52.138;5.236;2022-11-14T09:12:33;7.60;78.20
68215;DHT22;55036;52.138;5.236;2022-11-14T09:15:00;7.60;78.80
68215;DHT22;55036;52.138;5.236;2022-11-14T09:17:26;7.40;77.90
68215;DHT22;55036;52.138;5.236;2022-11-14T09:19:53;7.50;77.80
68215;DHT22;55036;52.138;5.236;2022-11-14T09:22:19;7.70;78.20
68215;DHT22;55036;52.138;5.236;2022-11-14T09:24:46;7.90;78.10
68215;DHT22;55036;52.138;5.236;2022-11-14T09:27:14;7.90;77.20
68215;DHT22;55036;52.138;5.236;2022-11-14T09:29:41;8.00;78.10
68215;DHT22;55036;52.138;5.236;2022-11-14T09:32:08;8.20;75.30
68215;DHT22;55036;52.138;5.236;2022-11-14T09:34:35;8.20;77.80
68215;DHT22;55036;52.138;5.236;2022-11-14T09:37:02;8.50;77.70
68215;DHT22;55036;52.138;5.236;2022-11-14T09:39:29;8.60;75.00
68215;DHT22;55036;52.138;5.236;2022-11-14T09:42:05;8.50;74.40
68215;DHT22;55036;52.138;5.236;2022-11-14T09:44:52;8.70;77.10
68215;DHT22;55036;52.138;5.236;2022-11-14T09:47:30;8.90;75.70
68215;DHT22;55036;52.138;5.236;2022-11-14T09:50:11;9.10;76.80
68215;DHT22;55036;52.138;5.236;2022-11-14T09:52:59;9.20;75.20
68215;DHT22;55036;52.138;5.236;2022-11-14T09:55:28;9.30;75.50
68215;DHT22;55036;52.138;5.236;2022-11-14T09:58:02;9.30;74.90
68215;DHT22;55036;52.138;5.236;2022-11-14T10:01:00;9.50;75.90
68215;DHT22;55036;52.138;5.236;2022-11-14T10:11:38;9.70;72.20
68215;DHT22;55036;52.138;5.236;2022-11-14T10:14:26;9.50;73.40
68215;DHT22;55036;52.138;5.236;2022-11-14T10:20:19;9.80;74.70
68215;DHT22;55036;52.138;5.236;2022-11-14T10:23:04;9.90;73.20
68215;DHT22;55036;52.138;5.236;2022-11-14T10:28:33;10.00;72.10
68215;DHT22;55036;52.138;5.236;2022-11-14T10:34:29;10.30;73.40
68215;DHT22;55036;52.138;5.236;2022-11-14T10:39:56;10.70;73.50
68215;DHT22;55036;52.138;5.236;2022-11-14T10:42:38;10.80;72.90
68215;DHT22;55036;52.138;5.236;2022-11-14T10:45:30;10.90;72.60
68215;DHT22;55036;52.138;5.236;2022-11-14T10:48:29;11.00;72.20
68215;DHT22;55036;52.138;5.236;2022-11-14T10:50:58;11.00;72.20
68215;DHT22;55036;52.138;5.236;2022-11-14T10:55:58;11.20;70.90
68215;DHT22;55036;52.138;5.236;2022-11-14T10:58:30;11.10;70.10
68215;DHT22;55036;52.138;5.236;2022-11-14T11:01:32;11.20;71.50
68215;DHT22;55036;52.138;5.236;2022-11-14T11:06:40;11.20;71.00
68215;DHT22;55036;52.138;5.236;2022-11-14T11:09:08;11.30;69.70
68215;DHT22;55036;52.138;5.236;2022-11-14T11:11:58;11.30;69.60
68215;DHT22;55036;52.138;5.236;2022-11-14T11:14:28;11.20;68.80
68215;DHT22;55036;52.138;5.236;2022-11-14T11:17:15;11.00;70.30
68215;DHT22;55036;52.138;5.236;2022-11-14T11:19:44;11.20;69.80
68215;DHT22;55036;52.138;5.236;2022-11-14T11:22:36;11.30;70.30
68215;DHT22;55036;52.138;5.236;2022-11-14T11:25:28;11.40;70.30
68215;DHT22;55036;52.138;5.236;2022-11-14T11:28:13;11.40;69.80
68215;DHT22;55036;52.138;5.236;2022-11-14T11:35:51;11.00;70.60
68215;DHT22;55036;52.138;5.236;2022-11-14T11:38:19;11.10;70.00
68215;DHT22;55036;52.138;5.236;2022-11-14T11:40:49;11.10;68.80
68215;DHT22;55036;52.138;5.236;2022-11-14T11:46:10;11.20;69.30
68215;DHT22;55036;52.138;5.236;2022-11-14T11:48:38;11.20;69.60
68215;DHT22;55036;52.138;5.236;2022-11-14T11:51:11;11.20;69.00
68215;DHT22;55036;52.138;5.236;2022-11-14T11:53:42;11.10;69.70
68215;DHT22;55036;52.138;5.236;2022-11-14T11:56:25;11.00;70.40
68215;DHT22;55036;52.138;5.236;2022-11-14T11:59:04;11.10;70.90
68215;DHT22;55036;52.138;5.236;2022-11-14T12:01:35;11.30;69.30
68215;DHT22;55036;52.138;5.236;2022-11-14T12:04:02;11.30;69.80
68215;DHT22;55036;52.138;5.236;2022-11-14T12:06:37;11.50;69.50
68215;DHT22;55036;52.138;5.236;2022-11-14T12:09:21;11.40;69.50
68215;DHT22;55036;52.138;5.236;2022-11-14T12:15:03;11.30;69.60
68215;DHT22;55036;52.138;5.236;2022-11-14T12:20:34;11.40;69.70
68215;DHT22;55036;52.138;5.236;2022-11-14T12:23:25;11.60;69.60
68215;DHT22;55036;52.138;5.236;2022-11-14T12:26:08;11.60;69.20
68215;DHT22;55036;52.138;5.236;2022-11-14T12:31:11;11.40;69.10
68215;DHT22;55036;52.138;5.236;2022-11-14T12:33:44;11.40;69.30
68215;DHT22;55036;52.138;5.236;2022-11-14T12:36:12;11.30;69.70
68215;DHT22;55036;52.138;5.236;2022-11-14T12:38:52;11.40;69.20
68215;DHT22;55036;52.138;5.236;2022-11-14T12:41:23;11.50;69.10
68215;DHT22;55036;52.138;5.236;2022-11-14T12:43:51;11.40;69.20
68215;DHT22;55036;52.138;5.236;2022-11-14T12:46:17;11.30;69.50
68215;DHT22;55036;52.138;5.236;2022-11-14T12:48:45;11.40;69.70
68215;DHT22;55036;52.138;5.236;2022-11-14T12:53:55;11.30;69.70
68215;DHT22;55036;52.138;5.236;2022-11-14T13:12:35;10.40;72.50
68215;DHT22;55036;52.138;5.236;2022-11-14T13:15:33;10.50;72.90
68215;DHT22;55036;52.138;5.236;2022-11-14T13:18:24;10.50;73.00
68215;DHT22;55036;52.138;5.236;2022-11-14T13:21:22;10.50;73.10
68215;DHT22;55036;52.138;5.236;2022-11-14T13:24:16;10.50;73.00
68215;DHT22;55036;52.138;5.236;2022-11-14T13:32:09;10.10;74.30
68215;DHT22;55036;52.138;5.236;2022-11-14T13:40:03;9.90;74.30
68215;DHT22;55036;52.138;5.236;2022-11-14T13:42:53;9.90;74.60
68215;DHT22;55036;52.138;5.236;2022-11-14T13:45:36;9.90;74.40
68215;DHT22;55036;52.138;5.236;2022-11-14T13:51:15;9.90;74.80
68215;DHT22;55036;52.138;5.236;2022-11-14T13:54:10;9.90;74.70
68215;DHT22;55036;52.138;5.236;2022-11-14T14:02:47;9.50;75.20
68215;DHT22;55036;52.138;5.236;2022-11-14T14:16:55;9.70;75.20
68215;DHT22;55036;52.138;5.236;2022-11-14T14:19:56;9.80;74.80
68215;DHT22;55036;52.138;5.236;2022-11-14T14:22:47;9.80;74.70
68215;DHT22;55036;52.138;5.236;2022-11-14T14:28:23;9.60;75.50
68215;DHT22;55036;52.138;5.236;2022-11-14T14:33:44;9.50;75.90
68215;DHT22;55036;52.138;5.236;2022-11-14T14:36:23;9.30;76.70
68215;DHT22;55036;52.138;5.236;2022-11-14T14:39:14;9.40;76.20
68215;DHT22;55036;52.138;5.236;2022-11-14T14:41:42;9.40;76.30
68215;DHT22;55036;52.138;5.236;2022-11-14T14:44:22;9.20;77.20
68215;DHT22;55036;52.138;5.236;2022-11-14T14:46:51;9.30;76.80
68215;DHT22;55036;52.138;5.236;2022-11-14T14:49:36;9.30;76.70
68215;DHT22;55036;52.138;5.236;2022-11-14T14:54:54;9.20;76.70
68215;DHT22;55036;52.138;5.236;2022-11-14T14:57:21;9.30;76.60
68215;DHT22;55036;52.138;5.236;2022-11-14T15:00:06;9.30;76.80
68215;DHT22;55036;52.138;5.236;2022-11-14T15:02:33;9.30;76.70
68215;DHT22;55036;52.138;5.236;2022-11-14T15:05:00;9.30;76.60
68215;DHT22;55036;52.138;5.236;2022-11-14T15:07:28;9.30;76.60
68215;DHT22;55036;52.138;5.236;2022-11-14T15:09:56;9.40;76.30
68215;DHT22;55036;52.138;5.236;2022-11-14T15:12:25;9.40;76.30
68215;DHT22;55036;52.138;5.236;2022-11-14T15:14:53;9.40;76.50
68215;DHT22;55036;52.138;5.236;2022-11-14T15:17:21;9.40;76.50
68215;DHT22;55036;52.138;5.236;2022-11-14T15:19:50;9.30;77.20
68215;DHT22;55036;52.138;5.236;2022-11-14T15:25:20;9.20;77.30
68215;DHT22;55036;52.138;5.236;2022-11-14T15:27:50;9.10;77.50
68215;DHT22;55036;52.138;5.236;2022-11-14T15:30:26;9.10;77.50
68215;DHT22;55036;52.138;5.236;2022-11-14T15:32:58;9.20;77.50
68215;DHT22;55036;52.138;5.236;2022-11-14T15:35:28;9.00;78.00
68215;DHT22;55036;52.138;5.236;2022-11-14T15:38:16;9.10;77.60
68215;DHT22;55036;52.138;5.236;2022-11-14T15:41:26;9.20;77.30
68215;DHT22;55036;52.138;5.236;2022-11-14T15:43:57;9.30;76.90
68215;DHT22;55036;52.138;5.236;2022-11-14T15:49:07;9.30;76.70
68215;DHT22;55036;52.138;5.236;2022-11-14T15:51:51;9.30;76.80
68215;DHT22;55036;52.138;5.236;2022-11-14T15:54:24;9.30;77.10
68215;DHT22;55036;52.138;5.236;2022-11-14T15:56:52;9.20;76.80
68215;DHT22;55036;52.138;5.236;2022-11-14T15:59:19;9.20;76.90
68215;DHT22;55036;52.138;5.236;2022-11-14T16:01:57;9.30;76.60
68215;DHT22;55036;52.138;5.236;2022-11-14T16:04:32;9.30;76.40
68215;DHT22;55036;52.138;5.236;2022-11-14T16:06:59;9.20;76.40
68215;DHT22;55036;52.138;5.236;2022-11-14T16:09:26;9.20;76.50
68215;DHT22;55036;52.138;5.236;2022-11-14T16:11:52;9.20;76.40
68215;DHT22;55036;52.138;5.236;2022-11-14T16:14:19;9.20;76.20
68215;DHT22;55036;52.138;5.236;2022-11-14T16:16:46;9.00;77.20
68215;DHT22;55036;52.138;5.236;2022-11-14T16:19:14;9.00;76.30
68215;DHT22;55036;52.138;5.236;2022-11-14T16:21:41;9.00;76.20
68215;DHT22;55036;52.138;5.236;2022-11-14T16:24:13;9.00;76.10
68215;DHT22;55036;52.138;5.236;2022-11-14T16:26:40;8.90;76.20
68215;DHT22;55036;52.138;5.236;2022-11-14T16:29:07;8.90;76.10
68215;DHT22;55036;52.138;5.236;2022-11-14T16:31:34;8.90;76.20
68215;DHT22;55036;52.138;5.236;2022-11-14T16:34:01;8.90;76.40
68215;DHT22;55036;52.138;5.236;2022-11-14T16:36:28;8.80;76.20
68215;DHT22;55036;52.138;5.236;2022-11-14T16:38:59;8.80;76.20
68215;DHT22;55036;52.138;5.236;2022-11-14T16:41:27;8.70;76.30
68215;DHT22;55036;52.138;5.236;2022-11-14T16:43:54;8.70;76.50
68215;DHT22;55036;52.138;5.236;2022-11-14T16:46:22;8.70;76.20
68215;DHT22;55036;52.138;5.236;2022-11-14T16:48:49;8.60;76.40
68215;DHT22;55036;52.138;5.236;2022-11-14T16:51:16;8.60;76.40
68215;DHT22;55036;52.138;5.236;2022-11-14T16:54:03;8.60;76.50
68215;DHT22;55036;52.138;5.236;2022-11-14T16:56:29;8.40;76.60
68215;DHT22;55036;52.138;5.236;2022-11-14T16:58:56;8.30;76.60
68215;DHT22;55036;52.138;5.236;2022-11-14T17:01:23;8.40;76.70
68215;DHT22;55036;52.138;5.236;2022-11-14T17:03:50;8.40;76.90
68215;DHT22;55036;52.138;5.236;2022-11-14T17:06:17;8.30;76.80
68215;DHT22;55036;52.138;5.236;2022-11-14T17:08:44;8.20;77.40
68215;DHT22;55036;52.138;5.236;2022-11-14T17:11:11;8.20;77.30
68215;DHT22;55036;52.138;5.236;2022-11-14T17:13:38;8.20;77.10
68215;DHT22;55036;52.138;5.236;2022-11-14T17:16:05;8.20;77.10
68215;DHT22;55036;52.138;5.236;2022-11-14T17:18:32;8.20;77.20
68215;DHT22;55036;52.138;5.236;2022-11-14T17:21:09;8.20;77.30
68215;DHT22;55036;52.138;5.236;2022-11-14T17:23:36;8.20;77.50
68215;DHT22;55036;52.138;5.236;2022-11-14T17:26:08;8.10;77.30
68215;DHT22;55036;52.138;5.236;2022-11-14T17:28:35;8.10;77.60
68215;DHT22;55036;52.138;5.236;2022-11-14T17:31:07;8.00;77.40
68215;DHT22;55036;52.138;5.236;2022-11-14T17:33:35;8.00;77.40
68215;DHT22;55036;52.138;5.236;2022-11-14T17:36:06;8.00;77.50
68215;DHT22;55036;52.138;5.236;2022-11-14T17:38:35;8.00;77.40
68215;DHT22;55036;52.138;5.236;2022-11-14T17:41:03;7.90;77.40
68215;DHT22;55036;52.138;5.236;2022-11-14T17:43:36;7.90;77.60
68215;DHT22;55036;52.138;5.236;2022-11-14T17:46:06;7.90;77.60
68215;DHT22;55036;52.138;5.236;2022-11-14T17:48:41;7.80;77.80
68215;DHT22;55036;52.138;5.236;2022-11-14T17:51:11;7.80;77.80
68215;DHT22;55036;52.138;5.236;2022-11-14T17:53:38;7.80;78.20
68215;DHT22;55036;52.138;5.236;2022-11-14T17:56:05;7.70;78.40
68215;DHT22;55036;52.138;5.236;2022-11-14T17:58:33;7.70;78.30
68215;DHT22;55036;52.138;5.236;2022-11-14T18:01:00;7.70;78.20
68215;DHT22;55036;52.138;5.236;2022-11-14T18:03:27;7.70;78.10